createdAt,value
2023-01-12T00:08:03.555Z,9.13
2023-01-12T00:18:09.066Z,9.87
2023-01-12T00:28:12.074Z,6.23
2023-01-12T00:38:16.625Z,4.70
2023-01-12T00:48:19.756Z,4.70
2023-01-12T00:58:24.281Z,6.33
2023-01-12T01:08:27.335Z,12.90
2023-01-12T01:18:32.286Z,5.83
2023-01-12T01:28:36.849Z,5.67
2023-01-12T01:38:41.492Z,4.67
2023-01-12T01:48:45.292Z,6.87
2023-01-12T01:58:54.226Z,4.83
2023-01-12T02:09:00.027Z,1.50
2023-01-12T02:19:30.098Z,4.50
2023-01-12T02:30:14.275Z,6.27
2023-01-12T02:40:26.909Z,5.47
2023-01-12T02:50:36.672Z,4.17
2023-01-12T03:00:44.185Z,5.13
2023-01-12T03:11:12.239Z,2.87
2023-01-12T03:21:22.299Z,3.53
2023-01-12T03:31:25.918Z,6.23
2023-01-12T03:41:39.342Z,4.63
2023-01-12T03:51:48.535Z,6.77
2023-01-12T04:01:53.100Z,3.25
2023-01-12T04:12:13.327Z,6.37
2023-01-12T04:22:35.629Z,6.23
2023-01-12T04:32:39.038Z,7.07
2023-01-12T04:43:07.937Z,5.70
2023-01-12T04:53:13.312Z,6.20
2023-01-12T05:03:17.582Z,3.47
2023-01-12T05:13:20.752Z,4.43
2023-01-12T05:23:44.085Z,4.10
2023-01-12T05:33:47.158Z,2.73
2023-01-12T05:43:51.622Z,2.50
2023-01-12T05:53:55.513Z,3.60
2023-01-12T06:04:02.448Z,4.33
2023-01-12T06:14:05.925Z,4.67
2023-01-12T06:24:10.515Z,5.03
2023-01-12T06:34:13.725Z,1.30
2023-01-12T06:44:18.280Z,4.00
2023-01-12T06:54:22.164Z,2.17
2023-01-12T07:04:26.754Z,3.20
2023-01-12T07:14:29.891Z,3.37
2023-01-12T07:24:34.279Z,3.70
2023-01-12T07:34:37.362Z,3.53
2023-01-12T07:44:42.185Z,5.47
2023-01-12T07:54:45.233Z,3.20
2023-01-12T08:04:49.633Z,5.97
2023-01-12T08:14:52.767Z,3.80
2023-01-12T08:25:01.330Z,2.17
2023-01-12T08:35:05.978Z,1.93
2023-01-12T08:45:21.527Z,0.77
2023-01-12T08:55:25.034Z,5.67
2023-01-12T09:05:29.629Z,0.80
2023-01-12T09:15:33.093Z,3.57
2023-01-12T09:25:38.587Z,1.03
2023-01-12T09:35:45.330Z,2.50
2023-01-12T09:46:07.222Z,1.33
2023-01-12T09:56:19.537Z,1.60
2023-01-12T10:06:23.997Z,2.00
2023-01-12T10:16:37.520Z,1.87
2023-01-12T10:26:44.194Z,1.80
2023-01-12T10:36:49.800Z,0.40
2023-01-12T10:47:10.509Z,1.50
2023-01-12T10:57:21.134Z,1.80
2023-01-12T11:07:29.156Z,0.27
2023-01-12T11:17:51.255Z,0.83
2023-01-12T11:27:59.494Z,1.83
2023-01-12T11:38:07.277Z,1.87
2023-01-12T11:48:23.295Z,1.67
2023-01-12T11:58:32.360Z,1.57
2023-01-12T12:18:57.583Z,2.40
2023-01-12T12:29:20.084Z,0.77
2023-01-12T12:39:36.707Z,1.93
2023-01-12T12:49:41.437Z,0.80
2023-01-12T12:59:56.969Z,0.70
2023-01-12T13:10:16.949Z,1.10
2023-01-12T13:20:37.709Z,0.50
2023-01-12T13:30:51.628Z,1.40
2023-01-12T13:41:03.123Z,0.80
2023-01-12T13:51:17.945Z,0.70
2023-01-12T14:01:28.004Z,0.70
2023-01-12T14:11:49.925Z,0.53
2023-01-12T14:21:57.845Z,0.60
2023-01-12T14:32:03.340Z,0.50
2023-01-12T14:42:24.397Z,1.33
2023-01-12T14:52:32.276Z,0.63
2023-01-12T15:02:37.640Z,1.17
2023-01-12T15:12:48.334Z,1.33
2023-01-12T15:23:08.066Z,0.80
2023-01-12T15:33:13.231Z,0.77
2023-01-12T15:43:18.223Z,1.50
2023-01-12T15:53:24.944Z,0.40
2023-01-12T16:03:54.928Z,1.70
2023-01-12T16:13:52.434Z,1.20
2023-01-12T16:23:58.031Z,0.60
2023-01-12T16:34:02.439Z,0.97
2023-01-12T16:44:06.021Z,0.20
2023-01-12T16:54:10.664Z,1.57
2023-01-12T17:04:13.879Z,1.57
2023-01-12T17:14:24.712Z,0.90
2023-01-12T17:24:28.487Z,0.30
2023-01-12T17:34:34.272Z,0.40
2023-01-12T17:44:37.371Z,0.53
2023-01-12T17:54:41.847Z,0.70
2023-01-12T18:04:44.936Z,0.53
2023-01-12T18:14:50.038Z,0.20
2023-01-12T18:24:52.818Z,1.33
2023-01-12T18:35:05.225Z,0.90
2023-01-12T18:45:09.196Z,0.80
2023-01-12T18:55:13.462Z,2.20
2023-01-12T19:05:20.826Z,1.80
2023-01-12T19:15:51.243Z,2.50
2023-01-12T19:26:08.553Z,1.77
2023-01-12T19:36:16.672Z,0.73
2023-01-12T19:46:20.318Z,0.33
2023-01-12T19:56:25.181Z,0.80
2023-01-12T20:06:29.033Z,0.43
2023-01-12T20:16:33.660Z,0.87
2023-01-12T20:26:37.497Z,0.80
2023-01-12T20:36:45.958Z,0.63
2023-01-12T20:46:50.820Z,2.47
2023-01-12T20:56:55.403Z,0.87
2023-01-12T21:06:58.817Z,0.40
2023-01-12T21:17:04.998Z,1.33
2023-01-12T21:27:07.763Z,0.50
2023-01-12T21:37:14.568Z,2.03
2023-01-12T21:47:18.791Z,0.50
2023-01-12T21:57:23.601Z,0.50
2023-01-12T22:07:27.921Z,0.10
2023-01-12T22:17:32.657Z,1.43
2023-01-12T22:27:37.057Z,0.10
2023-01-12T22:37:42.629Z,0.50
2023-01-12T22:47:48.485Z,0.30
2023-01-12T22:57:53.552Z,0.13
2023-01-12T23:07:57.557Z,0.60
2023-01-12T23:18:02.170Z,0.03
2023-01-12T23:28:06.918Z,0.07
2023-01-12T23:38:16.124Z,0.27
2023-01-12T23:48:19.491Z,0.87
2023-01-12T23:58:25.134Z,0.10
